Time;durP1;ratioP1;P1;durP2;ratioP2;P2;SDS_P1;SDS_P2;PMS_P1;PMS_P2;Temp;Humidity;BMP_temperature;BMP_pressure;BME280_temperature;BME280_humidity;BME280_pressure;Samples;Min_cycle;Max_cycle;Signal;HPM_P1;HPM_P2
2023/12/28 00:01:54;;;;;;;122.93;61.83;;;;;;;-143.21;73.98;74192.69;6153292;23;20174;-81
2023/12/28 00:04:21;;;;;;;112.67;57.33;;;;;;;-143.21;74.07;74192.69;6152475;23;20626;-79
2023/12/28 00:06:49;;;;;;;110.80;55.03;;;;;;;-143.21;73.57;74204.59;6152277;23;20198;-82
2023/12/28 00:09:16;;;;;;;110.30;53.70;;;;;;;-143.21;73.87;74204.59;6152381;23;20164;-83
2023/12/28 00:11:43;;;;;;;109.87;52.17;;;;;;;-143.21;73.99;74208.53;6153221;23;20178;-82
2023/12/28 00:14:09;;;;;;;99.13;49.37;;;;;;;-143.21;73.96;74218.47;6153439;23;20174;-82
2023/12/28 00:16:37;;;;;;;103.60;51.23;;;;;;;-143.21;73.99;74234.34;6152964;23;20170;-83
2023/12/28 00:19:06;;;;;;;100.43;50.13;;;;;;;-143.21;74.22;74236.31;6151423;23;20567;-83
2023/12/28 00:21:33;;;;;;;116.93;53.40;;;;;;;-143.21;73.62;74234.34;6151944;23;20169;-82
2023/12/28 00:24:04;;;;;;;106.90;52.60;;;;;;;-143.21;73.86;74226.41;6153540;23;20169;-82
2023/12/28 00:26:31;;;;;;;110.13;52.43;;;;;;;-143.21;74.01;74234.34;6152980;23;20203;-82
2023/12/28 00:28:57;;;;;;;102.10;52.37;;;;;;;-143.21;73.93;74242.28;6152621;23;20171;-83
2023/12/28 00:31:25;;;;;;;105.37;51.50;;;;;;;-143.21;74.22;74236.31;6134978;23;20181;-82
2023/12/28 00:33:52;;;;;;;94.50;47.13;;;;;;;-143.21;74.57;74246.25;6152231;23;20168;-83
2023/12/28 00:36:22;;;;;;;98.60;48.30;;;;;;;-143.21;74.38;74250.22;6152628;23;20168;-81
2023/12/28 00:38:55;;;;;;;96.20;47.13;;;;;;;-143.21;74.14;74258.16;6152083;23;20176;-82
2023/12/28 00:41:28;;;;;;;93.37;44.97;;;;;;;-143.21;74.29;74262.13;6151972;23;20576;-82
2023/12/28 00:43:55;;;;;;;89.37;43.47;;;;;;;-143.21;73.98;74266.09;6151426;23;20168;-82
2023/12/28 00:46:22;;;;;;;82.07;41.80;;;;;;;-143.21;73.87;74272.03;6152875;23;20200;-82
2023/12/28 00:48:48;;;;;;;75.67;39.83;;;;;;;-143.21;74.28;74285.94;6152010;23;20180;-82
2023/12/28 00:51:15;;;;;;;83.13;41.33;;;;;;;-143.21;74.24;74295.84;6152562;23;20169;-82
2023/12/28 00:53:42;;;;;;;82.33;43.23;;;;;;;-143.21;74.29;74287.91;6153011;23;20177;-82
2023/12/28 00:56:10;;;;;;;84.30;42.97;;;;;;;-143.21;74.82;74301.81;6153242;23;20174;-82
2023/12/28 00:59:11;;;;;;;83.63;43.80;;;;;;;-143.21;74.65;74291.88;6152554;23;20169;-81
2023/12/28 01:01:39;;;;;;;83.10;42.17;;;;;;;-143.21;74.36;74295.84;6062469;23;20182;-80
2023/12/28 01:04:06;;;;;;;79.93;40.20;;;;;;;-143.21;74.65;74299.81;6061275;23;20658;-81
2023/12/28 01:06:33;;;;;;;72.33;39.83;;;;;;;-143.21;74.25;74295.84;6059889;23;20259;-83
2023/12/28 01:09:00;;;;;;;75.73;39.77;;;;;;;-143.21;74.00;74303.78;6059497;23;20969;-77
2023/12/28 01:11:26;;;;;;;77.90;38.63;;;;;;;-143.21;74.68;74295.84;6061660;23;20637;-81
2023/12/28 01:14:05;;;;;;;76.57;40.50;;;;;;;-143.21;75.08;74301.81;6061811;23;20201;-85
2023/12/28 01:23:20;;;;;;;76.40;40.50;;;;;;;-143.21;75.28;74309.75;5868991;24;20570;-83
2023/12/28 01:25:47;;;;;;;78.77;41.30;;;;;;;-143.21;74.86;74303.78;5868414;24;20191;-84
2023/12/28 01:28:14;;;;;;;81.93;40.60;;;;;;;-143.21;74.52;74303.78;5877635;24;20210;-83
2023/12/28 01:30:41;;;;;;;81.73;42.00;;;;;;;-143.21;74.93;74305.78;5922986;24;20161;-83
2023/12/28 01:33:08;;;;;;;79.00;41.27;;;;;;;-143.21;75.27;74311.72;5922406;24;20508;-83
2023/12/28 01:35:37;;;;;;;80.67;39.83;;;;;;;-143.21;75.41;74309.75;5923140;24;20206;-82
2023/12/28 01:38:09;;;;;;;65.67;35.67;;;;;;;-143.21;75.17;74303.78;5944453;23;20171;-83
2023/12/28 01:40:37;;;;;;;72.60;39.17;;;;;;;-143.21;75.34;74311.72;6008270;23;20176;-86
2023/12/28 01:43:04;;;;;;;69.80;38.50;;;;;;;-143.21;75.03;74325.63;6008235;23;20167;-83
2023/12/28 01:45:34;;;;;;;77.07;40.37;;;;;;;-143.21;75.75;74339.50;6006565;23;20171;-83
2023/12/28 01:48:01;;;;;;;84.70;41.40;;;;;;;-143.21;75.78;74333.56;6005795;23;21053;-86
2023/12/28 01:50:32;;;;;;;85.63;43.30;;;;;;;-143.21;75.72;74327.59;6006497;23;20227;-84
2023/12/28 01:53:03;;;;;;;83.17;41.77;;;;;;;-143.21;75.56;74327.59;6006298;23;20260;-83
2023/12/28 01:55:41;;;;;;;83.53;43.03;;;;;;;-143.21;75.38;74321.66;6006305;23;20160;-83
2023/12/28 01:58:18;;;;;;;75.13;41.20;;;;;;;-143.21;75.43;74331.56;6005696;23;20184;-83
2023/12/28 02:00:46;;;;;;;81.23;41.67;;;;;;;-143.21;75.27;74329.59;6005704;23;20215;-84
2023/12/28 02:03:13;;;;;;;84.83;40.23;;;;;;;-143.21;75.77;74339.50;6006640;23;20167;-84
2023/12/28 02:05:40;;;;;;;83.63;41.80;;;;;;;-143.21;75.56;74341.50;6031888;23;20226;-85
2023/12/28 02:08:07;;;;;;;81.67;43.70;;;;;;;-143.21;76.01;74343.47;6154123;23;20196;-84
2023/12/28 02:10:34;;;;;;;82.23;42.67;;;;;;;-143.21;76.03;74343.47;6154468;23;20165;-83
2023/12/28 02:13:03;;;;;;;82.57;42.33;;;;;;;-143.21;76.43;74343.47;6153612;23;20243;-83
2023/12/28 02:15:31;;;;;;;79.57;42.77;;;;;;;-143.21;76.24;74355.38;6156061;23;20211;-84
2023/12/28 02:18:08;;;;;;;84.80;41.57;;;;;;;-143.21;76.46;74347.44;6154015;23;20167;-85
2023/12/28 02:20:41;;;;;;;77.43;40.30;;;;;;;-143.21;76.64;74343.47;6154068;23;20227;-85
2023/12/28 02:23:09;;;;;;;79.17;40.90;;;;;;;-143.21;76.75;74339.50;6154467;23;20154;-85
2023/12/28 02:25:37;;;;;;;85.93;41.17;;;;;;;-143.21;76.48;74335.53;6154312;23;20219;-84
2023/12/28 02:28:11;;;;;;;84.90;41.93;;;;;;;-143.21;76.72;74353.41;6154773;23;20255;-84
2023/12/28 02:30:40;;;;;;;79.03;40.63;;;;;;;-143.21;76.75;74353.41;6155699;23;20560;-83
2023/12/28 02:33:20;;;;;;;78.40;38.47;;;;;;;-143.21;76.98;74361.34;6154375;23;20643;-84
2023/12/28 02:35:52;;;;;;;69.13;38.27;;;;;;;-143.21;77.07;74363.31;6152786;23;20171;-83
2023/12/28 02:38:21;;;;;;;71.40;38.37;;;;;;;-143.21;77.03;74349.44;6152193;23;20228;-83
2023/12/28 02:40:53;;;;;;;70.53;37.30;;;;;;;-143.21;76.75;74341.50;6150340;23;20171;-83
2023/12/28 02:43:25;;;;;;;65.37;34.83;;;;;;;-143.21;76.75;74339.50;6152663;23;20170;-82
2023/12/28 02:45:52;;;;;;;66.37;35.80;;;;;;;-143.21;76.98;74349.44;6151869;23;20169;-83
2023/12/28 02:48:19;;;;;;;66.73;35.27;;;;;;;-143.21;76.59;74341.50;6151896;23;20192;-82
2023/12/28 02:50:48;;;;;;;62.27;34.17;;;;;;;-143.21;77.03;74357.38;6151917;23;20175;-82
2023/12/28 02:53:14;;;;;;;57.57;31.73;;;;;;;-143.21;77.49;74351.41;6152219;23;20211;-82
2023/12/28 02:55:41;;;;;;;53.87;29.20;;;;;;;-143.21;77.50;74367.28;6151908;23;20164;-83
2023/12/28 02:58:12;;;;;;;68.47;31.80;;;;;;;-143.21;77.50;74361.34;6151631;23;20298;-82
2023/12/28 03:00:41;;;;;;;52.33;28.93;;;;;;;-143.21;77.06;74359.34;6152294;23;20235;-82
2023/12/28 03:03:12;;;;;;;47.43;26.70;;;;;;;-143.21;77.17;74341.50;6151894;23;20177;-81
2023/12/28 03:05:44;;;;;;;51.17;27.73;;;;;;;-143.21;76.99;74353.41;6153065;23;20157;-83
2023/12/28 03:08:11;;;;;;;48.53;27.47;;;;;;;-143.21;77.11;74351.41;6152389;23;20180;-82
2023/12/28 03:10:37;;;;;;;50.73;27.47;;;;;;;-143.21;77.51;74361.34;6151696;23;20563;-82
2023/12/28 03:13:04;;;;;;;48.30;27.37;;;;;;;-143.21;77.92;74367.28;6153825;23;20172;-82
2023/12/28 03:15:34;;;;;;;47.47;26.43;;;;;;;-143.21;78.05;74381.19;6153662;23;20176;-82
2023/12/28 03:18:06;;;;;;;49.43;26.40;;;;;;;-143.21;78.21;74371.25;6154898;23;20214;-83
2023/12/28 03:20:32;;;;;;;50.37;25.83;;;;;;;-143.21;77.40;74355.38;6154940;23;20209;-83
2023/12/28 03:23:01;;;;;;;46.20;26.13;;;;;;;-143.21;77.29;74355.38;6154636;23;20285;-83
2023/12/28 03:25:29;;;;;;;48.27;25.30;;;;;;;-143.21;77.11;74349.44;6154334;23;20191;-82
2023/12/28 03:27:56;;;;;;;43.57;22.93;;;;;;;-143.21;77.42;74357.38;6154261;23;20196;-82
2023/12/28 03:30:26;;;;;;;44.10;22.80;;;;;;;-143.21;77.57;74357.38;6154132;23;20172;-82
2023/12/28 03:32:54;;;;;;;46.40;22.83;;;;;;;-143.21;77.58;74373.25;6153564;23;20172;-81
2023/12/28 03:35:21;;;;;;;41.37;23.03;;;;;;;-143.21;77.90;74385.16;6153109;23;20168;-82
2023/12/28 03:37:49;;;;;;;36.20;22.07;;;;;;;-143.21;78.10;74399.03;6152872;23;20519;-80
2023/12/28 03:40:16;;;;;;;46.13;21.70;;;;;;;-143.21;77.38;74377.22;6154761;23;20243;-80
2023/12/28 03:42:44;;;;;;;38.40;22.67;;;;;;;-143.21;77.54;74393.09;6153420;23;20173;-80
2023/12/28 03:45:11;;;;;;;44.20;23.53;;;;;;;-143.21;77.77;74395.06;6153573;23;20173;-81
2023/12/28 03:47:41;;;;;;;48.23;25.03;;;;;;;-143.21;78.11;74405.00;6153178;23;20671;-81
2023/12/28 03:50:10;;;;;;;46.93;24.97;;;;;;;-143.21;77.89;74397.06;6153967;23;20156;-81
2023/12/28 03:52:37;;;;;;;46.10;25.13;;;;;;;-143.21;77.99;74405.00;6153501;23;20164;-81
2023/12/28 03:55:12;;;;;;;58.37;28.33;;;;;;;-143.21;77.98;74414.91;6152082;23;20176;-81
2023/12/28 03:57:42;;;;;;;56.90;27.33;;;;;;;-143.21;78.34;74414.91;6153122;23;20153;-81
2023/12/28 04:00:17;;;;;;;55.47;28.10;;;;;;;-143.21;77.66;74416.91;6153150;23;20173;-81
2023/12/28 04:02:44;;;;;;;60.67;30.90;;;;;;;-143.21;77.89;74420.88;6153208;23;20162;-82
2023/12/28 04:05:16;;;;;;;56.00;30.03;;;;;;;-143.21;78.40;74426.81;6153067;23;20175;-83
2023/12/28 04:07:44;;;;;;;47.07;24.53;;;;;;;-143.21;79.04;74434.75;6153199;23;20195;-82
2023/12/28 04:10:11;;;;;;;50.40;27.30;;;;;;;-143.21;79.47;74438.72;6153059;23;20239;-82
2023/12/28 04:12:38;;;;;;;60.07;31.63;;;;;;;-143.21;79.93;74434.75;6153069;23;20250;-82
2023/12/28 04:17:47;;;;;;;50.70;28.47;;;;;;;-143.21;79.75;74446.66;6149696;23;20250;-82
2023/12/28 04:20:32;;;;;;;49.93;27.83;;;;;;;-143.21;79.57;74452.63;6153439;23;20210;-83
2023/12/28 04:23:02;;;;;;;51.37;27.77;;;;;;;-143.21;79.44;74454.59;6154187;23;20163;-86
2023/12/28 04:25:29;;;;;;;49.63;27.87;;;;;;;-143.21;78.60;74452.63;6154105;23;20178;-85
2023/12/28 04:28:01;;;;;;;57.90;30.20;;;;;;;-143.21;78.82;74440.72;6154547;23;20271;-85
2023/12/28 04:30:30;;;;;;;47.60;26.10;;;;;;;-143.21;78.41;74452.63;6153486;23;20152;-84
2023/12/28 04:32:57;;;;;;;51.83;28.20;;;;;;;-143.21;79.06;74450.63;6153455;23;20167;-83
2023/12/28 04:35:26;;;;;;;50.60;27.47;;;;;;;-143.21;79.06;74438.72;6153576;23;20246;-83
2023/12/28 04:37:54;;;;;;;50.57;29.20;;;;;;;-143.21;79.07;74434.75;6154381;23;20168;-82
2023/12/28 04:40:26;;;;;;;53.80;28.70;;;;;;;-143.21;78.71;74428.81;6155068;23;20175;-83
2023/12/28 04:42:53;;;;;;;49.67;27.80;;;;;;;-143.21;78.42;74428.81;6153526;23;20168;-83
2023/12/28 04:45:22;;;;;;;49.10;28.03;;;;;;;-143.21;78.41;74432.78;6152652;23;20172;-82
2023/12/28 04:47:49;;;;;;;48.53;25.33;;;;;;;-143.21;78.53;74446.66;6152184;23;20191;-83
2023/12/28 04:50:16;;;;;;;45.90;25.73;;;;;;;-143.21;78.61;74454.59;6153251;23;20179;-83
2023/12/28 04:52:44;;;;;;;52.73;29.10;;;;;;;-143.21;78.64;74456.59;6152685;23;20979;-84
2023/12/28 04:55:13;;;;;;;52.53;26.87;;;;;;;-143.21;78.99;74458.56;6152224;23;20167;-83
2023/12/28 04:57:45;;;;;;;43.73;25.33;;;;;;;-143.21;79.26;74466.50;6151989;23;20172;-83
2023/12/28 05:00:12;;;;;;;49.33;27.13;;;;;;;-143.21;79.54;74474.44;6152265;23;20156;-83
2023/12/28 05:02:42;;;;;;;50.63;26.77;;;;;;;-143.21;79.97;74474.44;6154042;23;20231;-84
2023/12/28 05:05:11;;;;;;;47.40;24.80;;;;;;;-143.21;79.71;74462.53;6152011;23;20254;-84
2023/12/28 05:07:43;;;;;;;48.33;28.77;;;;;;;-143.21;79.34;74472.47;6152107;23;20661;-82
2023/12/28 05:10:11;;;;;;;56.87;29.77;;;;;;;-143.21;79.00;74466.50;6152366;23;20156;-83
2023/12/28 05:12:38;;;;;;;53.73;28.70;;;;;;;-143.21;78.64;74466.50;6151745;23;20171;-83
2023/12/28 05:15:09;;;;;;;56.77;28.47;;;;;;;-143.21;78.43;74466.50;6153059;23;20195;-84
2023/12/28 05:17:43;;;;;;;53.20;28.10;;;;;;;-143.21;78.43;74466.50;6151724;23;20199;-83
2023/12/28 05:20:13;;;;;;;51.37;28.73;;;;;;;-143.21;78.02;74460.56;6153207;23;20194;-84
2023/12/28 05:22:40;;;;;;;55.03;30.80;;;;;;;-143.21;78.19;74466.50;6153363;23;20168;-83
2023/12/28 05:25:09;;;;;;;59.30;31.23;;;;;;;-143.21;78.46;74458.56;6156011;23;20172;-85
2023/12/28 05:27:44;;;;;;;57.03;31.63;;;;;;;-143.21;78.08;74456.59;6155584;23;20278;-84
2023/12/28 05:30:11;;;;;;;61.13;31.87;;;;;;;-143.21;78.25;74454.59;6152858;23;20546;-84
2023/12/28 05:32:38;;;;;;;59.47;32.70;;;;;;;-143.21;78.11;74452.63;6152688;23;20168;-85
2023/12/28 05:35:06;;;;;;;61.57;33.03;;;;;;;-143.21;77.87;74458.56;6152723;23;20222;-86
2023/12/28 05:37:35;;;;;;;71.93;35.33;;;;;;;-143.21;78.09;74464.53;6153229;23;20167;-81
2023/12/28 05:40:03;;;;;;;76.30;38.93;;;;;;;-143.21;78.31;74476.44;6151800;23;20172;-82
2023/12/28 05:42:29;;;;;;;69.17;35.37;;;;;;;-143.21;78.66;74476.44;6152911;23;20249;-84
2023/12/28 05:44:57;;;;;;;84.83;43.00;;;;;;;-143.21;78.82;74488.34;6159410;23;20163;-84
2023/12/28 05:47:29;;;;;;;106.03;48.83;;;;;;;-143.21;78.63;74496.28;6157807;23;20214;-82
2023/12/28 05:49:57;;;;;;;112.43;52.73;;;;;;;-143.21;78.97;74506.19;6153082;23;20170;-84
2023/12/28 05:52:27;;;;;;;136.63;59.13;;;;;;;-143.21;79.20;74506.19;6150457;23;20167;-83
2023/12/28 05:54:55;;;;;;;136.03;61.87;;;;;;;-143.21;79.50;74510.16;6150569;23;20164;-83
2023/12/28 05:57:22;;;;;;;136.30;63.23;;;;;;;-143.21;79.20;74510.16;6152088;23;20174;-82
2023/12/28 05:59:52;;;;;;;126.90;60.90;;;;;;;-143.21;79.57;74510.16;6152797;23;20164;-84
2023/12/28 06:02:20;;;;;;;140.20;64.83;;;;;;;-143.21;80.08;74512.16;6151493;23;20622;-83
2023/12/28 06:04:47;;;;;;;150.63;71.57;;;;;;;-143.21;80.13;74508.19;6151993;23;20938;-83
2023/12/28 06:07:13;;;;;;;134.47;65.63;;;;;;;-143.21;79.91;74506.19;6152130;23;20179;-82
2023/12/28 06:09:40;;;;;;;141.70;68.20;;;;;;;-143.21;79.20;74494.28;6152515;23;20199;-89
2023/12/28 06:12:08;;;;;;;132.80;63.00;;;;;;;-143.21;79.05;74496.28;6153870;23;20226;-84
2023/12/28 06:14:35;;;;;;;137.63;64.77;;;;;;;-143.21;79.47;74492.31;6154784;23;20168;-87
2023/12/28 06:17:02;;;;;;;121.23;60.17;;;;;;;-143.21;78.76;74484.38;6156124;23;20167;-86
2023/12/28 06:19:31;;;;;;;140.70;65.17;;;;;;;-143.21;78.93;74482.38;6151909;23;20230;-87
2023/12/28 06:21:58;;;;;;;148.90;71.57;;;;;;;-143.21;78.84;74482.38;6153400;23;20160;-88
2023/12/28 06:24:25;;;;;;;149.43;74.10;;;;;;;-143.21;79.06;74488.34;6152515;23;20172;-87
2023/12/28 06:26:52;;;;;;;159.90;78.13;;;;;;;-143.21;79.16;74494.28;6154110;23;20246;-87
2023/12/28 06:29:18;;;;;;;156.63;74.57;;;;;;;-143.21;79.05;74484.38;6153214;23;20195;-87
2023/12/28 06:31:45;;;;;;;157.40;79.30;;;;;;;-143.21;79.56;74486.34;6153774;23;20164;-88
2023/12/28 06:34:12;;;;;;;166.23;82.33;;;;;;;-143.21;79.40;74468.50;6152086;23;20175;-90
2023/12/28 06:36:40;;;;;;;156.93;77.63;;;;;;;-143.21;79.37;74462.53;6152805;23;20160;-88
2023/12/28 06:39:07;;;;;;;154.53;77.27;;;;;;;-143.21;78.68;74462.53;6155005;23;20176;-89
2023/12/28 06:41:34;;;;;;;155.33;77.33;;;;;;;-143.21;78.82;74466.50;6153673;23;20172;-89
2023/12/28 06:44:04;;;;;;;139.63;72.87;;;;;;;-143.21;78.23;74452.63;6157283;23;20231;-88
2023/12/28 06:46:34;;;;;;;149.03;74.17;;;;;;;-143.21;78.30;74460.56;6155168;23;20241;-89
2023/12/28 06:49:00;;;;;;;144.83;72.97;;;;;;;-143.21;78.18;74458.56;6155082;23;20203;-87
2023/12/28 06:51:32;;;;;;;137.87;68.23;;;;;;;-143.21;77.97;74462.53;6158275;23;20532;-90
2023/12/28 06:54:02;;;;;;;146.23;71.07;;;;;;;-143.21;78.32;74468.50;6155881;23;20159;-90
2023/12/28 06:59:21;;;;;;;117.10;57.87;;;;;;;-143.21;78.19;74456.59;6151607;23;20167;-88
2023/12/28 07:01:49;;;;;;;110.17;59.33;;;;;;;-143.21;78.03;74448.66;6154813;23;20922;-90
2023/12/28 07:04:19;;;;;;;125.37;62.13;;;;;;;-143.21;78.55;74444.69;6152567;23;20728;-91
2023/12/28 07:06:46;;;;;;;125.30;63.83;;;;;;;-143.21;78.83;74452.63;6153643;23;20182;-89
2023/12/28 07:09:14;;;;;;;131.10;62.97;;;;;;;-143.21;78.07;74436.75;6153843;23;20270;-90
2023/12/28 07:11:41;;;;;;;147.07;68.10;;;;;;;-143.21;78.37;74436.75;6154460;23;20218;-88
2023/12/28 07:14:50;;;;;;;138.67;69.53;;;;;;;-143.21;78.45;74430.78;6153472;23;20271;-88
2023/12/28 07:17:18;;;;;;;137.97;68.73;;;;;;;-143.21;78.21;74426.81;6041565;23;20171;-88
2023/12/28 07:19:45;;;;;;;121.83;58.23;;;;;;;-143.21;78.67;74426.81;6152464;23;20897;-88
2023/12/28 07:22:11;;;;;;;123.33;59.20;;;;;;;-143.21;79.20;74414.91;6155049;23;20199;-87
2023/12/28 07:24:40;;;;;;;127.83;60.83;;;;;;;-143.21;79.40;74410.94;6155668;23;20616;-87
2023/12/28 07:27:07;;;;;;;97.30;52.30;;;;;;;-143.21;79.13;74408.97;6151863;23;20172;-88
2023/12/28 07:29:34;;;;;;;105.53;51.93;;;;;;;-143.21;79.34;74399.03;6152138;23;20197;-88
2023/12/28 07:32:01;;;;;;;94.77;48.20;;;;;;;-143.21;79.44;74385.16;6153909;23;20176;-90
2023/12/28 07:34:28;;;;;;;73.63;38.63;;;;;;;-143.21;79.55;74389.13;6155014;23;20169;-88
2023/12/28 07:36:56;;;;;;;69.33;35.80;;;;;;;-143.21;79.44;74381.19;6153981;23;20165;-89
2023/12/28 07:39:23;;;;;;;72.57;34.70;;;;;;;-143.21;79.32;74379.19;6154995;23;20232;-90
2023/12/28 07:41:56;;;;;;;64.40;32.70;;;;;;;-143.21;79.63;74371.25;6155746;23;20166;-88
2023/12/28 07:44:28;;;;;;;61.63;31.60;;;;;;;-143.21;79.35;74367.28;6163403;23;20159;-88
2023/12/28 07:46:55;;;;;;;64.73;31.97;;;;;;;-143.21;79.08;74357.38;6158290;23;20213;-87
2023/12/28 07:49:23;;;;;;;59.00;32.03;;;;;;;-143.21;78.95;74355.38;6155099;23;20201;-86
2023/12/28 07:51:49;;;;;;;74.17;34.90;;;;;;;-143.21;78.85;74349.44;6163144;23;20174;-86
2023/12/28 07:54:16;;;;;;;68.30;35.07;;;;;;;-143.21;79.04;74347.44;6153990;23;20615;-85
2023/12/28 07:56:43;;;;;;;73.70;34.50;;;;;;;-143.21;79.16;74341.50;6154625;23;20177;-86
2023/12/28 07:59:11;;;;;;;63.40;33.77;;;;;;;-143.21;79.03;74335.53;6154409;23;20695;-88
2023/12/28 08:01:38;;;;;;;64.87;34.47;;;;;;;-143.21;78.14;74331.56;6156741;23;20528;-87
2023/12/28 08:04:05;;;;;;;60.20;33.37;;;;;;;-143.21;78.18;74333.56;6154943;23;20173;-87
2023/12/28 08:06:32;;;;;;;62.53;31.40;;;;;;;-143.21;77.98;74307.75;6158016;23;20179;-88
2023/12/28 08:09:00;;;;;;;55.60;30.57;;;;;;;-143.21;78.00;74305.78;6156510;23;20193;-88
2023/12/28 08:11:27;;;;;;;58.93;31.17;;;;;;;-143.21;78.44;74301.81;6154705;23;20170;-88
2023/12/28 08:13:54;;;;;;;57.57;31.50;;;;;;;-143.21;78.29;74291.88;6149701;23;20165;-79
2023/12/28 08:16:22;;;;;;;56.33;31.97;;;;;;;-143.21;78.27;74283.94;6151752;23;20237;-89
2023/12/28 08:18:49;;;;;;;62.57;31.77;;;;;;;-143.21;78.09;74279.97;6151990;23;20629;-80
2023/12/28 08:21:16;;;;;;;61.30;32.10;;;;;;;-143.21;77.98;74256.16;6148110;23;20205;-80
2023/12/28 08:23:43;;;;;;;65.10;32.57;;;;;;;-143.21;77.71;74254.19;6149802;23;20293;-80
2023/12/28 08:26:10;;;;;;;60.97;32.97;;;;;;;-143.21;77.72;74240.28;6149827;23;20179;-81
2023/12/28 08:28:37;;;;;;;60.17;33.00;;;;;;;-143.21;77.38;74232.34;6150508;23;20222;-79
2023/12/28 08:31:04;;;;;;;64.87;34.67;;;;;;;-143.21;77.45;74226.41;6149584;23;20167;-80
2023/12/28 08:33:32;;;;;;;57.10;31.53;;;;;;;-143.21;76.56;74216.47;6148326;23;20228;-80
2023/12/28 08:36:03;;;;;;;57.60;29.97;;;;;;;-143.21;76.38;74216.47;6149812;23;20171;-81
2023/12/28 08:38:30;;;;;;;52.77;30.90;;;;;;;-143.21;75.78;74206.56;6151134;23;20167;-80
2023/12/28 08:40:57;;;;;;;56.03;31.07;;;;;;;-143.21;76.12;74196.66;6150113;23;20645;-79
2023/12/28 08:43:24;;;;;;;54.37;31.23;;;;;;;-143.21;76.01;74192.69;6149016;23;20237;-80
2023/12/28 08:45:54;;;;;;;53.47;29.50;;;;;;;-143.21;76.14;74184.75;6149365;23;20179;-79
2023/12/28 08:48:21;;;;;;;51.17;30.20;;;;;;;-143.21;75.12;74170.84;6148546;23;20762;-79
2023/12/28 08:50:50;;;;;;;45.63;23.53;;;;;;;-143.21;74.40;74172.84;6149518;23;20181;-80
2023/12/28 08:53:17;;;;;;;43.33;23.67;;;;;;;-143.21;74.01;74166.88;6150137;23;20222;-81
2023/12/28 08:55:44;;;;;;;46.70;22.80;;;;;;;-143.21;73.80;74160.94;6148896;23;20174;-79
2023/12/28 08:58:10;;;;;;;42.57;22.23;;;;;;;-143.21;73.53;74149.03;6149280;23;20230;-80
2023/12/28 09:00:37;;;;;;;37.03;21.07;;;;;;;-143.21;73.71;74151.00;6147027;23;20186;-79
2023/12/28 09:03:05;;;;;;;42.90;22.80;;;;;;;-143.21;72.94;74133.16;6147432;23;20175;-78
2023/12/28 09:05:59;;;;;;;44.30;23.23;;;;;;;-143.21;73.15;74127.19;6148257;23;20175;-80
2023/12/28 09:11:15;;;;;;;41.83;24.70;;;;;;;-143.21;72.29;74093.47;6128706;23;20174;-79
2023/12/28 09:13:42;;;;;;;47.97;25.23;;;;;;;-143.21;71.80;74075.59;6149331;23;20237;-80
2023/12/28 09:16:11;;;;;;;49.97;24.13;;;;;;;-143.21;71.55;74069.66;6151032;23;20183;-77
2023/12/28 09:18:45;;;;;;;42.43;24.47;;;;;;;-143.21;71.42;74073.63;6150188;23;20167;-90
2023/12/28 09:21:12;;;;;;;41.17;23.60;;;;;;;-143.21;70.45;74043.84;6153429;23;20257;-89
2023/12/28 09:23:41;;;;;;;38.80;23.03;;;;;;;-143.21;69.67;74041.88;6152746;23;20168;-89
2023/12/28 09:26:09;;;;;;;49.20;25.80;;;;;;;-143.21;70.26;74039.88;6153992;23;20176;-83
2023/12/28 09:28:36;;;;;;;39.23;23.70;;;;;;;-143.21;71.23;74026.00;6154337;23;20172;-83
2023/12/28 09:31:07;;;;;;;39.07;24.10;;;;;;;-143.21;70.50;74012.13;6151517;23;20176;-81
2023/12/28 09:33:33;;;;;;;41.77;25.20;;;;;;;-143.21;70.38;74010.13;6150460;23;20207;-83
2023/12/28 09:36:00;;;;;;;44.97;25.63;;;;;;;-143.21;70.23;73980.38;6150094;23;20189;-80
2023/12/28 09:38:28;;;;;;;42.90;25.83;;;;;;;-143.21;70.00;73968.47;6150972;23;20267;-82
2023/12/28 09:41:04;;;;;;;48.20;25.87;;;;;;;-143.21;70.10;73958.53;6153235;23;20642;-85
2023/12/28 09:43:37;;;;;;;46.63;27.33;;;;;;;-143.21;69.39;73950.59;6152885;23;20214;-83
2023/12/28 09:46:11;;;;;;;48.43;26.80;;;;;;;-143.21;69.03;73950.59;6155231;23;20483;-85
2023/12/28 09:48:39;;;;;;;50.40;27.60;;;;;;;-143.21;69.32;73942.66;6154399;23;20156;-81
2023/12/28 09:51:07;;;;;;;52.47;29.37;;;;;;;-143.21;69.36;73926.78;6153088;23;20179;-81
2023/12/28 09:53:33;;;;;;;61.07;34.23;;;;;;;-143.21;68.79;73910.94;6150559;23;20171;-80
2023/12/28 09:58:58;;;;;;;72.07;37.50;;;;;;;-143.21;68.26;73778.00;6139976;23;20227;-80
2023/12/28 10:01:57;;;;;;;74.03;36.67;;;;;;;-143.21;62.85;73573.66;6148998;23;20163;-81
2023/12/28 10:04:24;;;;;;;69.87;37.20;;;;;;;-143.21;56.34;73297.91;6149729;23;20164;-80
2023/12/28 10:06:52;;;;;;;63.67;36.13;;;;;;;-143.21;49.52;73044.00;6151339;23;20164;-85
2023/12/28 10:09:18;;;;;;;59.97;34.80;;;;;;;-143.21;43.69;72819.84;6148813;23;20187;-84
2023/12/28 10:11:48;;;;;;;59.93;34.63;;;;;;;-143.21;40.16;72657.22;6150659;23;20167;-84
2023/12/28 10:14:14;;;;;;;60.30;34.77;;;;;;;-143.21;37.36;72510.44;6150349;23;20806;-82
2023/12/28 10:16:48;;;;;;;62.13;34.53;;;;;;;-143.21;35.58;72357.75;6149754;23;20171;-79
2023/12/28 10:19:15;;;;;;;57.13;34.80;;;;;;;-143.21;34.49;72328.00;6151680;23;20242;-85
2023/12/28 10:21:43;;;;;;;57.80;35.57;;;;;;;-143.21;33.88;72292.31;6149177;23;20200;-82
2023/12/28 10:24:11;;;;;;;57.17;35.70;;;;;;;-143.21;33.55;72248.66;6148871;23;20175;-79
2023/12/28 10:26:38;;;;;;;61.22;36.30;;;;;;;-143.21;32.72;72177.28;6148314;23;20176;-81
2023/12/28 10:29:06;;;;;;;58.63;35.38;;;;;;;-143.21;31.67;72109.84;6151510;23;20597;-89
2023/12/28 10:31:35;;;;;;;63.33;36.90;;;;;;;-143.21;31.06;72092.00;6150191;23;20172;-81
2023/12/28 10:34:02;;;;;;;63.33;36.88;;;;;;;-143.21;32.73;72256.59;6147179;23;20210;-83
2023/12/28 10:36:29;;;;;;;58.17;36.63;;;;;;;-143.21;32.66;72234.78;6146144;23;20164;-81
2023/12/28 10:38:58;;;;;;;54.13;36.38;;;;;;;-143.21;32.32;72189.19;6147798;23;20772;-81
2023/12/28 10:41:26;;;;;;;70.13;39.75;;;;;;;-143.21;31.70;72145.56;6150976;23;20179;-83
2023/12/28 10:44:03;;;;;;;60.20;36.92;;;;;;;-143.21;31.38;72097.97;6148811;23;20555;-82
2023/12/28 10:46:32;;;;;;;56.65;36.55;;;;;;;-143.21;31.13;72094.00;6150735;23;20233;-82
2023/12/28 10:49:02;;;;;;;57.78;36.88;;;;;;;-143.21;30.65;72044.41;6150868;23;20175;-85
2023/12/28 10:51:29;;;;;;;60.58;38.22;;;;;;;-143.21;30.15;71986.91;6151046;23;20251;-83
2023/12/28 10:54:07;;;;;;;54.35;35.95;;;;;;;-143.21;29.59;71978.97;6150065;23;20168;-84
2023/12/28 10:56:39;;;;;;;63.65;37.80;;;;;;;-143.21;29.78;71969.06;6148388;23;20211;-81
2023/12/28 10:59:16;;;;;;;61.53;38.00;;;;;;;-143.21;30.01;71949.25;6150956;23;20583;-79
2023/12/28 11:01:48;;;;;;;60.92;38.15;;;;;;;-143.21;29.23;71881.81;6151945;23;20159;-84
2023/12/28 11:04:24;;;;;;;54.22;37.28;;;;;;;-143.21;29.13;71891.72;6151308;23;20156;-81
2023/12/28 11:06:52;;;;;;;61.78;36.25;;;;;;;-143.21;29.18;71883.81;6150373;23;20175;-78
2023/12/28 11:09:23;;;;;;;50.97;35.08;;;;;;;-143.21;28.99;71858.03;6150442;23;20218;-80
2023/12/28 11:11:52;;;;;;;54.75;32.95;;;;;;;-143.21;29.23;71897.69;6149775;23;20164;-80
2023/12/28 11:14:19;;;;;;;54.38;34.28;;;;;;;-143.21;30.04;71994.84;6149010;23;20638;-81
2023/12/28 11:16:48;;;;;;;53.20;35.33;;;;;;;-143.21;29.36;71917.50;6148649;23;20649;-78
2023/12/28 11:19:15;;;;;;;56.65;34.83;;;;;;;-143.21;29.11;71836.22;6149970;23;20180;-78
2023/12/28 11:21:43;;;;;;;50.85;32.47;;;;;;;-143.21;28.53;71822.34;6149456;23;20217;-78
2023/12/28 11:24:12;;;;;;;47.78;32.75;;;;;;;-143.21;28.52;71826.28;6149415;23;20230;-78
2023/12/28 11:26:39;;;;;;;53.35;31.50;;;;;;;-143.21;28.41;71800.53;6149071;23;20179;-78